Galt, Missouri
Current Conditions -  °F | °C
As of 5:20 AM on Wednesday 26 Nov 2014 (Local Time) from KLWD Reporting Station
Overcast Overcast  
Wind Chill: 21°   Ceiling: 400
Heat Index: 30°   Visibility: 9mi
Dew Point: 29°   Wind: 12mph
Humidity: 96%   Direction: 160°SSE
Pressure: 29.85"   Gusts: NA
Location:  40.13°N, 93.39°W
Report Text: KLWD 261120Z AUTO 16010KT 9SM BKN004 OVC010 M01/M02 A2985 RMK AO2 SNE03 P0000 T10111017
Loading
Personal Weather Stations






























Interactive Weather Map New forecast layout! Learn more

10-Day Weather Forecast

Advertisements
Track Severe Weather on mobile